createdAt,value
2017-09-29T00:00:28.571Z,19.95
2017-09-29T00:02:55.182Z,19.92
2017-09-29T00:05:21.791Z,18.17
2017-09-29T00:07:48.470Z,18.55
2017-09-29T00:10:15.151Z,21.90
2017-09-29T00:12:41.767Z,19.73
2017-09-29T00:15:08.398Z,21.05
2017-09-29T00:17:35.024Z,17.40
2017-09-29T00:20:01.635Z,20.33
2017-09-29T00:22:28.303Z,17.90
2017-09-29T00:24:54.915Z,22.42
2017-09-29T00:27:21.535Z,22.17
2017-09-29T00:29:48.222Z,20.55
2017-09-29T00:32:14.845Z,20.42
2017-09-29T00:34:41.501Z,23.38
2017-09-29T00:37:08.135Z,20.40
2017-09-29T00:39:34.780Z,19.17
2017-09-29T00:42:01.430Z,22.40
2017-09-29T00:44:28.062Z,20.88
2017-09-29T00:46:54.681Z,21.55
2017-09-29T00:49:21.298Z,19.30
2017-09-29T00:51:47.970Z,20.85
2017-09-29T00:54:14.591Z,21.45
2017-09-29T00:56:41.193Z,20.00
2017-09-29T00:59:07.815Z,22.10
2017-09-29T01:01:34.426Z,20.52
2017-09-29T01:04:01.054Z,23.73
2017-09-29T01:06:27.673Z,19.25
2017-09-29T01:08:54.294Z,18.98
2017-09-29T01:11:20.923Z,17.80
2017-09-29T01:13:47.621Z,18.12
2017-09-29T01:16:14.374Z,17.12
2017-09-29T01:18:41.001Z,20.40
2017-09-29T01:21:07.605Z,21.35
2017-09-29T01:23:34.278Z,20.25
2017-09-29T01:26:00.898Z,18.15
2017-09-29T01:28:27.519Z,21.48
2017-09-29T01:30:54.158Z,23.40
2017-09-29T01:33:20.859Z,21.10
2017-09-29T01:35:47.579Z,20.80
2017-09-29T01:38:14.206Z,18.12
2017-09-29T01:40:40.850Z,17.87
2017-09-29T01:43:07.482Z,18.80
2017-09-29T01:45:34.093Z,20.05
2017-09-29T01:48:00.710Z,18.27
2017-09-29T01:50:27.339Z,18.67
2017-09-29T01:52:53.981Z,27.50
2017-09-29T01:55:20.594Z,18.77
2017-09-29T01:57:47.226Z,19.25
2017-09-29T02:00:13.871Z,17.08
2017-09-29T02:02:40.489Z,18.12
2017-09-29T02:05:07.110Z,18.77
2017-09-29T02:07:33.728Z,21.80
2017-09-29T02:10:00.338Z,17.80
2017-09-29T02:12:26.966Z,23.17
2017-09-29T02:14:53.585Z,19.35
2017-09-29T02:17:20.241Z,22.45
2017-09-29T02:19:46.974Z,19.25
2017-09-29T02:22:13.591Z,17.60
2017-09-29T02:24:40.254Z,21.30
2017-09-29T02:27:06.893Z,21.00
2017-09-29T02:29:33.497Z,20.10
2017-09-29T02:32:00.118Z,18.98
2017-09-29T02:34:26.753Z,17.17
2017-09-29T02:36:53.458Z,18.02
2017-09-29T02:39:20.072Z,20.90
2017-09-29T02:41:46.730Z,18.85
2017-09-29T02:44:13.342Z,16.58
2017-09-29T02:46:39.949Z,21.17
2017-09-29T02:49:06.642Z,17.90
2017-09-29T02:51:33.263Z,18.12
2017-09-29T02:53:59.919Z,19.23
2017-09-29T02:56:29.416Z,17.73
2017-09-29T02:58:57.431Z,19.95
2017-09-29T03:01:24.696Z,21.20
2017-09-29T03:03:51.959Z,21.20
2017-09-29T03:06:18.658Z,21.80
2017-09-29T03:08:45.262Z,20.92
2017-09-29T03:11:11.894Z,18.92
2017-09-29T03:13:38.498Z,20.05
2017-09-29T03:16:05.106Z,20.65
2017-09-29T03:18:31.732Z,18.70
2017-09-29T03:20:58.350Z,19.77
2017-09-29T03:23:24.978Z,18.98
2017-09-29T03:25:51.602Z,20.77
2017-09-29T03:28:18.219Z,18.90
2017-09-29T03:30:44.833Z,22.30
2017-09-29T03:33:11.618Z,21.42
2017-09-29T03:35:38.222Z,19.40
2017-09-29T03:38:04.838Z,21.42
2017-09-29T03:40:31.492Z,24.33
2017-09-29T03:42:58.119Z,21.15
2017-09-29T03:45:24.727Z,22.87
2017-09-29T03:47:51.357Z,20.73
2017-09-29T03:50:19.614Z,19.02
2017-09-29T03:52:47.078Z,21.98
2017-09-29T03:55:15.277Z,21.25
2017-09-29T03:57:43.629Z,19.10
2017-09-29T04:00:10.250Z,21.02
2017-09-29T04:02:36.861Z,19.70
2017-09-29T04:05:03.479Z,22.30
2017-09-29T04:07:30.154Z,22.40
2017-09-29T04:09:56.765Z,21.83
2017-09-29T04:12:23.394Z,22.35
2017-09-29T04:14:50.090Z,22.67
2017-09-29T04:17:16.706Z,20.80
2017-09-29T04:19:43.322Z,19.85
2017-09-29T04:22:10.007Z,19.65
2017-09-29T04:24:36.726Z,20.65
2017-09-29T04:27:03.348Z,21.55
2017-09-29T04:29:29.973Z,21.75
2017-09-29T04:31:56.650Z,21.55
2017-09-29T04:34:23.254Z,20.88
2017-09-29T04:36:49.930Z,20.83
2017-09-29T04:39:16.539Z,19.75
2017-09-29T04:41:43.158Z,20.17
2017-09-29T04:44:09.786Z,22.48
2017-09-29T04:46:36.483Z,27.10
2017-09-29T04:49:03.106Z,23.55
2017-09-29T04:51:29.733Z,23.77
2017-09-29T04:53:56.355Z,24.23
2017-09-29T04:56:23.034Z,21.00
2017-09-29T04:58:49.667Z,20.80
2017-09-29T05:01:16.282Z,22.05
2017-09-29T05:03:42.905Z,24.58
2017-09-29T05:06:09.558Z,22.10
2017-09-29T05:08:36.182Z,22.05
2017-09-29T05:11:02.794Z,21.27
2017-09-29T05:13:29.422Z,25.15
2017-09-29T05:15:56.031Z,22.95
2017-09-29T05:18:22.654Z,24.10
2017-09-29T05:20:49.325Z,22.37
2017-09-29T05:23:15.929Z,22.90
2017-09-29T05:25:42.551Z,23.80
2017-09-29T05:28:09.178Z,26.35
2017-09-29T05:30:35.796Z,22.35
2017-09-29T05:33:02.463Z,27.98
2017-09-29T05:35:29.086Z,24.23
2017-09-29T05:37:55.704Z,24.58
2017-09-29T05:40:22.334Z,22.25
2017-09-29T05:42:48.958Z,26.35
2017-09-29T05:45:15.574Z,24.35
2017-09-29T05:47:42.259Z,23.77
2017-09-29T05:50:08.878Z,23.20
2017-09-29T05:52:35.500Z,31.67
2017-09-29T05:55:02.133Z,35.75
2017-09-29T05:57:28.742Z,39.03
2017-09-29T05:59:55.359Z,32.22
2017-09-29T06:02:21.976Z,37.30
2017-09-29T06:04:48.594Z,34.67
2017-09-29T06:07:15.262Z,42.25
2017-09-29T06:09:41.870Z,43.45
2017-09-29T06:12:08.482Z,37.95
2017-09-29T06:14:35.118Z,35.70
2017-09-29T06:17:01.821Z,35.22
2017-09-29T06:19:28.458Z,35.72
2017-09-29T06:21:55.086Z,32.33
2017-09-29T06:24:21.706Z,32.28
2017-09-29T06:26:48.323Z,39.42
2017-09-29T06:29:14.947Z,31.60
2017-09-29T06:31:41.625Z,30.80
2017-09-29T06:34:08.254Z,30.65
2017-09-29T06:36:34.934Z,32.78
2017-09-29T06:39:01.541Z,29.52
2017-09-29T06:41:28.216Z,33.67
2017-09-29T06:43:54.830Z,28.05
2017-09-29T06:46:21.443Z,29.87
2017-09-29T06:48:48.147Z,29.65
2017-09-29T06:51:14.754Z,28.17
2017-09-29T06:53:41.378Z,33.72
2017-09-29T06:56:07.986Z,28.98
2017-09-29T06:58:34.620Z,32.53
2017-09-29T07:01:01.237Z,26.77
2017-09-29T07:03:27.846Z,26.67
2017-09-29T07:05:54.473Z,28.08
2017-09-29T07:08:21.097Z,29.12
2017-09-29T07:10:47.717Z,30.08
2017-09-29T07:13:14.346Z,29.05
2017-09-29T07:15:41.018Z,28.98
2017-09-29T07:18:07.634Z,28.83
2017-09-29T07:20:34.263Z,34.92
2017-09-29T07:23:00.923Z,34.45
2017-09-29T07:25:29.101Z,29.05
2017-09-29T07:27:57.155Z,34.55
2017-09-29T07:30:27.492Z,35.35
2017-09-29T07:32:54.183Z,36.45
2017-09-29T07:35:20.793Z,38.80
2017-09-29T07:37:47.466Z,39.13
2017-09-29T07:40:14.110Z,33.35
2017-09-29T07:42:40.726Z,37.95
2017-09-29T07:45:07.341Z,44.05
2017-09-29T07:47:33.976Z,38.83
2017-09-29T07:50:00.585Z,37.20
2017-09-29T07:52:27.297Z,42.70
2017-09-29T07:54:54.041Z,36.78
2017-09-29T07:57:20.651Z,38.30
2017-09-29T07:59:47.264Z,37.45
2017-09-29T08:02:13.891Z,35.30
2017-09-29T08:04:40.593Z,41.92
2017-09-29T08:07:07.246Z,35.92
2017-09-29T08:09:33.882Z,35.83
2017-09-29T08:12:00.494Z,34.72
2017-09-29T08:14:27.110Z,34.53
2017-09-29T08:16:53.735Z,36.38
2017-09-29T08:19:20.346Z,38.00
2017-09-29T08:21:46.967Z,38.05
2017-09-29T08:24:13.589Z,35.97
2017-09-29T08:26:40.217Z,34.67
2017-09-29T08:29:06.826Z,39.67
2017-09-29T08:31:33.457Z,34.83
2017-09-29T08:34:00.071Z,36.47
2017-09-29T08:36:26.682Z,41.03
2017-09-29T08:38:53.309Z,39.03
2017-09-29T08:41:19.979Z,38.95
2017-09-29T08:43:46.590Z,33.03
2017-09-29T08:46:13.219Z,33.60
2017-09-29T08:48:39.827Z,36.13
2017-09-29T08:51:06.467Z,32.30
2017-09-29T08:53:33.111Z,34.90
2017-09-29T08:55:59.723Z,35.58
2017-09-29T08:58:26.351Z,35.75
2017-09-29T09:00:52.967Z,35.13
2017-09-29T09:03:19.583Z,38.35
2017-09-29T09:05:46.222Z,48.10
2017-09-29T09:08:12.901Z,37.25
2017-09-29T09:10:39.541Z,37.38
2017-09-29T09:13:06.285Z,37.20
2017-09-29T09:15:32.893Z,32.70
2017-09-29T09:17:59.558Z,33.45
2017-09-29T09:20:26.182Z,35.60
2017-09-29T09:22:52.836Z,35.70
2017-09-29T09:25:19.466Z,33.92
2017-09-29T09:27:46.076Z,34.00
2017-09-29T09:30:12.695Z,34.95
2017-09-29T09:32:39.334Z,34.17
2017-09-29T09:35:06.034Z,33.30
2017-09-29T09:37:32.659Z,35.00
2017-09-29T09:39:59.289Z,33.40
2017-09-29T09:42:25.896Z,33.45
2017-09-29T09:44:52.527Z,34.80
2017-09-29T09:47:19.142Z,32.95
2017-09-29T09:49:45.754Z,33.53
2017-09-29T09:52:12.389Z,28.90
2017-09-29T09:54:39.038Z,32.13
2017-09-29T09:57:05.650Z,31.45
2017-09-29T09:59:32.284Z,31.80
2017-09-29T10:01:58.904Z,32.45
2017-09-29T10:04:25.520Z,29.52
2017-09-29T10:06:52.238Z,28.90
2017-09-29T10:09:18.883Z,28.65
2017-09-29T10:11:45.506Z,30.25
2017-09-29T10:14:12.136Z,34.03
2017-09-29T10:16:39.045Z,33.45
2017-09-29T10:19:06.157Z,30.62
2017-09-29T10:21:32.985Z,35.00
2017-09-29T10:24:00.087Z,37.58
2017-09-29T10:26:26.869Z,31.42
2017-09-29T10:28:53.503Z,30.58
2017-09-29T10:31:20.114Z,39.53
2017-09-29T10:33:46.805Z,35.63
2017-09-29T10:36:13.435Z,40.00
2017-09-29T10:38:40.046Z,34.58
2017-09-29T10:41:06.663Z,36.80
2017-09-29T10:43:33.362Z,34.47
2017-09-29T10:45:59.975Z,33.60
2017-09-29T10:48:26.586Z,38.88
2017-09-29T10:50:53.205Z,42.70
2017-09-29T10:53:19.830Z,37.47
2017-09-29T10:55:46.437Z,32.28
2017-09-29T10:58:13.062Z,41.28
2017-09-29T11:00:39.677Z,37.20
2017-09-29T11:03:06.307Z,33.70
2017-09-29T11:05:32.918Z,33.42
2017-09-29T11:07:59.550Z,33.95
2017-09-29T11:10:26.187Z,34.95
2017-09-29T11:12:52.797Z,34.75
2017-09-29T11:15:19.414Z,46.20
2017-09-29T11:17:46.146Z,40.03
2017-09-29T11:20:12.851Z,44.33
2017-09-29T11:22:39.478Z,48.63
2017-09-29T11:25:06.106Z,45.70
2017-09-29T11:27:32.718Z,49.00
2017-09-29T11:29:59.402Z,42.85
2017-09-29T11:32:26.032Z,49.40
2017-09-29T11:34:52.636Z,53.50
2017-09-29T11:37:19.318Z,47.20
2017-09-29T11:39:45.935Z,49.88
2017-09-29T11:42:12.598Z,55.08
2017-09-29T11:44:39.235Z,51.40
2017-09-29T11:47:05.870Z,45.70
2017-09-29T11:49:32.482Z,46.97
2017-09-29T11:51:59.115Z,45.92
2017-09-29T11:54:25.736Z,46.33
2017-09-29T11:56:52.349Z,44.70
2017-09-29T11:59:19.074Z,47.28
2017-09-29T12:01:45.695Z,49.92
2017-09-29T12:04:12.336Z,46.42
2017-09-29T12:06:38.990Z,49.67
2017-09-29T12:09:05.602Z,44.15
2017-09-29T12:11:32.228Z,45.03
2017-09-29T12:13:58.842Z,44.90
2017-09-29T12:16:25.458Z,46.80
2017-09-29T12:18:52.088Z,44.00
2017-09-29T12:21:18.722Z,44.45
2017-09-29T12:23:45.359Z,46.75
2017-09-29T12:26:12.000Z,53.25
2017-09-29T12:28:38.615Z,42.78
2017-09-29T12:31:05.283Z,46.33
2017-09-29T12:33:31.956Z,45.22
2017-09-29T12:35:58.654Z,47.83
2017-09-29T12:38:25.263Z,43.28
2017-09-29T12:40:51.898Z,51.63
2017-09-29T12:43:18.510Z,42.42
2017-09-29T12:45:45.125Z,42.45
2017-09-29T12:48:11.749Z,40.95
2017-09-29T12:50:38.361Z,41.63
2017-09-29T12:53:04.981Z,46.42
2017-09-29T12:55:31.612Z,44.25
2017-09-29T12:57:58.234Z,40.63
2017-09-29T13:00:24.863Z,42.20
2017-09-29T13:02:51.478Z,41.90
2017-09-29T13:05:18.119Z,40.95
2017-09-29T13:07:44.742Z,37.75
2017-09-29T13:10:11.358Z,37.53
2017-09-29T13:12:37.974Z,38.70
2017-09-29T13:15:04.597Z,42.03
2017-09-29T13:17:31.219Z,40.08
2017-09-29T13:19:57.953Z,40.75
2017-09-29T13:22:24.570Z,42.67
2017-09-29T13:24:51.184Z,40.00
2017-09-29T13:27:17.839Z,41.40
2017-09-29T13:29:44.507Z,37.47
2017-09-29T13:32:11.118Z,38.30
2017-09-29T13:34:37.782Z,41.33
2017-09-29T13:37:04.398Z,37.22
2017-09-29T13:39:31.011Z,37.88
2017-09-29T13:41:57.638Z,41.83
2017-09-29T13:44:31.713Z,37.00
2017-09-29T13:46:59.373Z,37.05
2017-09-29T13:49:29.186Z,33.17
2017-09-29T13:52:07.805Z,36.05
2017-09-29T13:54:42.122Z,37.17
2017-09-29T13:57:10.293Z,42.53
2017-09-29T13:59:37.135Z,41.65
2017-09-29T14:02:09.304Z,40.40
2017-09-29T14:04:36.870Z,38.72
2017-09-29T14:07:06.423Z,42.78
2017-09-29T14:09:46.113Z,42.22
2017-09-29T14:12:13.297Z,39.85
2017-09-29T14:14:40.682Z,44.60
2017-09-29T14:17:07.730Z,46.22
2017-09-29T14:19:35.315Z,35.75
2017-09-29T14:22:02.545Z,32.95
2017-09-29T14:24:29.194Z,38.63
2017-09-29T14:26:55.825Z,32.95
2017-09-29T14:29:22.437Z,32.80
2017-09-29T14:31:49.062Z,33.45
2017-09-29T14:34:15.690Z,39.28
2017-09-29T14:36:43.126Z,35.75
2017-09-29T14:39:11.495Z,36.72
2017-09-29T14:41:38.831Z,31.27
2017-09-29T14:44:05.986Z,32.17
2017-09-29T14:46:33.452Z,32.58
2017-09-29T14:49:03.572Z,32.55
2017-09-29T14:51:31.730Z,28.60
2017-09-29T14:54:00.287Z,27.20
2017-09-29T14:56:31.633Z,26.95
2017-09-29T14:59:06.914Z,26.12
2017-09-29T15:01:37.025Z,25.40
2017-09-29T15:04:06.194Z,20.37
2017-09-29T15:06:33.997Z,19.98
2017-09-29T15:09:02.063Z,23.25
2017-09-29T15:11:29.008Z,24.60
2017-09-29T15:14:02.716Z,25.08
2017-09-29T15:16:29.738Z,27.20
2017-09-29T15:18:57.266Z,28.10
2017-09-29T15:21:23.947Z,27.85
2017-09-29T15:23:50.611Z,28.40
2017-09-29T15:26:17.332Z,29.75
2017-09-29T15:28:43.970Z,32.10
2017-09-29T15:31:10.811Z,30.15
2017-09-29T15:33:37.859Z,29.95
2017-09-29T15:36:04.904Z,31.83
2017-09-29T15:38:31.824Z,29.05
2017-09-29T15:40:58.795Z,32.75
2017-09-29T15:43:25.738Z,32.00
2017-09-29T15:45:52.785Z,28.55
2017-09-29T15:48:19.731Z,29.48
2017-09-29T15:50:49.107Z,30.45
2017-09-29T15:53:16.281Z,29.87
2017-09-29T15:55:43.123Z,25.90
2017-09-29T15:58:11.092Z,30.67
2017-09-29T16:00:38.036Z,32.80
2017-09-29T16:03:04.696Z,29.05
2017-09-29T16:05:31.337Z,29.90
2017-09-29T16:07:58.360Z,29.42
2017-09-29T16:10:32.265Z,26.73
2017-09-29T16:12:58.874Z,28.33
2017-09-29T16:15:25.490Z,33.97
2017-09-29T16:17:52.194Z,29.60
2017-09-29T16:20:18.810Z,37.63
2017-09-29T16:22:45.474Z,30.05
2017-09-29T16:25:12.107Z,30.08
2017-09-29T16:27:38.713Z,28.90
2017-09-29T16:30:05.369Z,30.30
2017-09-29T16:32:31.994Z,27.87
2017-09-29T16:34:58.633Z,28.30
2017-09-29T16:37:25.281Z,30.35
2017-09-29T16:39:51.922Z,34.55
2017-09-29T16:42:18.530Z,35.67
2017-09-29T16:44:45.208Z,38.40
2017-09-29T16:47:11.859Z,37.63
2017-09-29T16:49:38.507Z,34.47
2017-09-29T16:52:05.235Z,40.83
2017-09-29T16:54:31.861Z,37.38
2017-09-29T16:56:58.659Z,37.75
2017-09-29T16:59:25.378Z,37.33
2017-09-29T17:01:52.117Z,35.67
2017-09-29T17:04:18.777Z,39.58
2017-09-29T17:06:45.565Z,36.15
2017-09-29T17:09:13.445Z,44.13
2017-09-29T17:31:45.603Z,41.67
2017-09-29T17:40:31.085Z,37.28
2017-09-29T17:42:57.697Z,37.13
2017-09-29T17:45:24.308Z,38.40
2017-09-29T17:47:50.933Z,41.78
2017-09-29T17:50:17.550Z,39.90
2017-09-29T17:53:00.609Z,38.10
2017-09-29T17:55:40.435Z,48.38
2017-09-29T18:42:48.014Z,32.30
2017-09-29T18:45:29.805Z,31.95
2017-09-29T18:48:05.398Z,33.88
2017-09-29T18:50:32.029Z,30.70
2017-09-29T18:52:58.640Z,31.27
2017-09-29T18:55:25.250Z,32.65
2017-09-29T18:57:51.877Z,30.62
2017-09-29T19:00:18.491Z,32.95
2017-09-29T19:02:45.107Z,30.75
2017-09-29T19:05:11.740Z,36.65
2017-09-29T19:07:38.349Z,29.37
2017-09-29T19:10:04.974Z,33.83
2017-09-29T19:12:31.629Z,31.92
2017-09-29T19:14:58.248Z,33.47
2017-09-29T19:17:24.893Z,33.00
2017-09-29T19:19:51.572Z,31.75
2017-09-29T19:22:18.188Z,34.35
2017-09-29T19:24:44.797Z,35.20
2017-09-29T19:27:11.459Z,32.92
2017-09-29T19:29:38.169Z,32.97
2017-09-29T19:32:04.782Z,33.65
2017-09-29T19:34:31.412Z,32.35
2017-09-29T19:36:58.021Z,31.45
2017-09-29T19:39:24.630Z,34.05
2017-09-29T19:41:51.266Z,34.35
2017-09-29T19:44:17.877Z,39.90
2017-09-29T19:46:44.630Z,32.53
2017-09-29T20:06:18.990Z,36.30
2017-09-29T20:08:45.613Z,32.67
2017-09-29T20:11:12.230Z,32.90
2017-09-29T20:13:38.844Z,29.00
2017-09-29T20:16:05.475Z,30.90
2017-09-29T20:18:32.086Z,31.92
2017-09-29T20:20:58.698Z,38.28
2017-09-29T20:23:25.322Z,30.30
2017-09-29T20:25:51.938Z,34.83
2017-09-29T20:28:24.827Z,33.35
2017-09-29T20:30:51.475Z,32.00
2017-09-29T20:33:18.095Z,37.13
2017-09-29T20:35:44.763Z,36.08
2017-09-29T20:38:11.388Z,39.53
2017-09-29T20:40:38.138Z,34.80
2017-09-29T20:43:04.774Z,31.23
2017-09-29T20:45:31.385Z,27.55
2017-09-29T20:47:58.003Z,27.23
2017-09-29T20:50:24.698Z,33.92
2017-09-29T20:52:51.314Z,27.17
2017-09-29T20:55:17.970Z,27.75
2017-09-29T20:57:44.687Z,35.78
2017-09-29T21:00:11.307Z,27.62
2017-09-29T21:02:37.952Z,29.33
2017-09-29T21:05:04.619Z,27.58
2017-09-29T21:07:31.225Z,28.05
2017-09-29T21:09:57.906Z,30.08
2017-09-29T21:12:24.581Z,28.15
2017-09-29T21:14:51.302Z,33.05
2017-09-29T21:20:07.357Z,33.60
2017-09-29T21:22:34.023Z,33.25
2017-09-29T21:25:05.072Z,29.55
2017-09-29T21:36:05.101Z,27.90
2017-09-29T21:38:32.773Z,29.05
2017-09-29T22:11:18.509Z,31.85
2017-09-29T22:13:46.061Z,32.10
2017-09-29T22:16:12.837Z,30.88
2017-09-29T22:18:39.493Z,26.48
2017-09-29T22:21:06.416Z,29.75
2017-09-29T22:23:33.154Z,30.77
2017-09-29T22:25:59.860Z,26.60
2017-09-29T22:28:26.521Z,26.20
2017-09-29T22:30:53.182Z,28.27
2017-09-29T22:33:19.857Z,29.25
2017-09-29T22:35:46.476Z,24.70
2017-09-29T22:38:13.110Z,31.45
2017-09-29T22:40:39.745Z,24.83
2017-09-29T22:43:06.446Z,27.55
2017-09-29T22:45:33.070Z,31.60
2017-09-29T22:47:59.689Z,25.60
2017-09-29T22:50:26.343Z,25.65
2017-09-29T22:52:53.068Z,26.37
2017-09-29T22:55:19.679Z,28.58
2017-09-29T22:57:46.335Z,26.70
2017-09-29T23:00:12.958Z,24.87
2017-09-29T23:02:39.590Z,29.02
2017-09-29T23:05:06.202Z,25.02
2017-09-29T23:07:32.831Z,26.35
2017-09-29T23:09:59.450Z,24.70
2017-09-29T23:12:26.061Z,26.40
2017-09-29T23:14:52.682Z,25.12
2017-09-29T23:17:19.300Z,25.60
2017-09-29T23:19:45.914Z,24.80
2017-09-29T23:22:12.594Z,25.48
2017-09-29T23:24:39.210Z,26.73
2017-09-29T23:27:05.823Z,25.60
2017-09-29T23:29:32.447Z,25.85
2017-09-29T23:31:59.063Z,24.12
2017-09-29T23:34:25.673Z,25.92
2017-09-29T23:36:52.306Z,23.48
2017-09-29T23:39:18.934Z,27.42
2017-09-29T23:41:45.547Z,23.08
2017-09-29T23:44:12.178Z,26.48
2017-09-29T23:46:38.791Z,27.08
2017-09-29T23:49:05.398Z,26.20
2017-09-29T23:51:32.026Z,24.08
2017-09-29T23:53:58.633Z,25.23
2017-09-29T23:56:25.242Z,25.23
2017-09-29T23:58:51.870Z,27.13
